Time;durP1;ratioP1;P1;durP2;ratioP2;P2;SDS_P1;SDS_P2;PMS_P1;PMS_P2;Temp;Humidity;BMP_temperature;BMP_pressure;BME280_temperature;BME280_humidity;BME280_pressure;Samples;Min_cycle;Max_cycle;Signal;HPM_P1;HPM_P2
2022/02/12 00:00:11;;;;;;;20.40;12.57;;;;;;;;;;2041652;29;20418;-54
2022/02/12 00:01:36;;;;;;;20.37;11.80;;;;;;;;;;2041770;29;20565;-54
2022/02/12 00:03:01;;;;;;;20.53;13.20;;;;;;;;;;2041895;29;20761;-57
2022/02/12 00:04:51;;;;;;;19.07;12.97;;;;;;;;;;2042205;29;20382;-59
2022/02/12 00:06:41;;;;;;;16.80;12.20;;;;;;;;;;2037654;29;20442;-58
2022/02/12 00:08:31;;;;;;;15.93;10.77;;;;;;;;;;2038147;29;20402;-59
2022/02/12 00:10:21;;;;;;;21.53;12.07;;;;;;;;;;2034871;29;20453;-57
2022/02/12 00:12:12;;;;;;;20.60;10.07;;;;;;;;;;2033956;29;20439;-57
2022/02/12 00:14:02;;;;;;;17.57;12.03;;;;;;;;;;2033820;29;20482;-58
2022/02/12 00:15:52;;;;;;;23.87;11.87;;;;;;;;;;2033947;29;20435;-58
2022/02/12 00:17:43;;;;;;;18.73;11.93;;;;;;;;;;2041574;29;20394;-57
2022/02/12 09:08:38;;;;;;;8.00;6.27;;;;;;;;;;2053995;28;20241;-61
2022/02/12 09:09:40;;;;;;;9.57;6.10;;;;;;;;;;2053491;28;20803;-61
2022/02/12 09:10:40;;;;;;;11.10;5.77;;;;;;;;;;2054566;28;20252;-59
2022/02/12 09:11:42;;;;;;;9.67;4.87;;;;;;;;;;2055660;28;20757;-61
2022/02/12 09:12:42;;;;;;;8.97;5.80;;;;;;;;;;2056347;28;20209;-59
2022/02/12 09:13:42;;;;;;;10.43;6.17;;;;;;;;;;2055980;28;20186;-61
2022/02/12 09:14:43;;;;;;;10.77;5.80;;;;;;;;;;2056877;28;20251;-61
2022/02/12 09:15:43;;;;;;;12.63;9.00;;;;;;;;;;2063572;28;20173;-59
2022/02/12 09:16:43;;;;;;;10.27;5.97;;;;;;;;;;2063355;28;20185;-60
2022/02/12 09:17:44;;;;;;;8.60;7.00;;;;;;;;;;2063979;28;20173;-63
2022/02/12 09:18:44;;;;;;;17.90;10.03;;;;;;;;;;2062450;28;20197;-59
2022/02/12 09:19:44;;;;;;;14.73;10.03;;;;;;;;;;2064302;28;20213;-62
2022/02/12 09:20:45;;;;;;;5.97;5.30;;;;;;;;;;2058187;28;20273;-61
2022/02/12 09:21:45;;;;;;;11.80;5.97;;;;;;;;;;2061180;28;20214;-62
2022/02/12 09:22:46;;;;;;;9.43;5.77;;;;;;;;;;2059222;28;20182;-59
2022/02/12 09:23:46;;;;;;;19.43;8.47;;;;;;;;;;2064882;28;20189;-62
2022/02/12 09:24:46;;;;;;;20.97;12.87;;;;;;;;;;2061819;28;20332;-61
2022/02/12 09:25:46;;;;;;;16.50;8.87;;;;;;;;;;2063166;28;20201;-62
2022/02/12 09:26:47;;;;;;;8.87;6.87;;;;;;;;;;2060218;28;20244;-60
2022/02/12 09:27:47;;;;;;;6.37;5.10;;;;;;;;;;2061906;28;20335;-60
2022/02/12 09:28:48;;;;;;;9.63;6.10;;;;;;;;;;2058965;28;20186;-60
2022/02/12 09:29:49;;;;;;;7.47;4.83;;;;;;;;;;2060308;28;20177;-59
2022/02/12 09:30:49;;;;;;;10.40;6.20;;;;;;;;;;2061070;28;20177;-56
2022/02/12 09:31:49;;;;;;;9.50;6.40;;;;;;;;;;2062511;28;20193;-64
2022/02/12 09:32:50;;;;;;;13.40;5.60;;;;;;;;;;2060301;28;20228;-58
2022/02/12 09:33:50;;;;;;;6.43;5.40;;;;;;;;;;2064796;28;20189;-62
2022/02/12 09:34:52;;;;;;;11.57;5.50;;;;;;;;;;2055319;28;20616;-58
2022/02/12 09:35:56;;;;;;;14.43;5.20;;;;;;;;;;2048937;28;20183;-60
2022/02/12 09:36:56;;;;;;;8.53;4.83;;;;;;;;;;2052899;28;20686;-60
2022/02/12 09:37:56;;;;;;;8.43;5.43;;;;;;;;;;2058941;28;20177;-59
2022/02/12 09:38:56;;;;;;;9.97;5.80;;;;;;;;;;2062371;28;20186;-60
2022/02/12 09:39:57;;;;;;;11.40;5.07;;;;;;;;;;2055635;28;20566;-57
2022/02/12 09:40:57;;;;;;;11.27;4.70;;;;;;;;;;2055520;28;20628;-61
2022/02/12 09:41:58;;;;;;;11.17;4.70;;;;;;;;;;2059503;28;20305;-62
2022/02/12 09:42:59;;;;;;;10.43;4.93;;;;;;;;;;2061280;28;20188;-59
2022/02/12 09:43:59;;;;;;;10.40;5.07;;;;;;;;;;2060740;28;20193;-62
2022/02/12 09:45:00;;;;;;;7.70;4.93;;;;;;;;;;2056978;28;20221;-58
2022/02/12 09:46:03;;;;;;;7.50;5.10;;;;;;;;;;2059983;28;20186;-62
2022/02/12 09:47:22;;;;;;;6.53;4.70;;;;;;;;;;2056735;28;20178;-61
2022/02/12 09:48:23;;;;;;;7.70;5.07;;;;;;;;;;2058975;28;20182;-63
2022/02/12 09:49:23;;;;;;;9.00;5.90;;;;;;;;;;2063090;28;20173;-61
2022/02/12 09:50:23;;;;;;;10.57;6.10;;;;;;;;;;2065094;28;20220;-62
2022/02/12 09:51:24;;;;;;;10.40;5.97;;;;;;;;;;2064275;28;20684;-61
2022/02/12 09:52:27;;;;;;;10.57;5.30;;;;;;;;;;2065052;28;20542;-59
2022/02/12 09:53:28;;;;;;;11.77;4.97;;;;;;;;;;2065420;28;20236;-59
2022/02/12 09:54:29;;;;;;;9.17;5.90;;;;;;;;;;2060854;28;20256;-58
2022/02/12 09:55:31;;;;;;;12.70;6.00;;;;;;;;;;2064937;28;20221;-54
2022/02/12 09:56:33;;;;;;;9.97;5.47;;;;;;;;;;2066851;28;20553;-55
2022/02/12 09:57:33;;;;;;;12.93;5.90;;;;;;;;;;2064588;28;20199;-60
2022/02/12 09:58:34;;;;;;;14.03;5.97;;;;;;;;;;2065868;28;20197;-58
2022/02/12 09:59:34;;;;;;;10.10;5.27;;;;;;;;;;2067139;28;20217;-57
2022/02/12 10:00:34;;;;;;;12.23;5.30;;;;;;;;;;2067773;28;20261;-61
2022/02/12 10:01:38;;;;;;;11.00;5.40;;;;;;;;;;2066112;28;20178;-61
2022/02/12 10:02:38;;;;;;;8.40;5.27;;;;;;;;;;2065967;28;20658;-57
2022/02/12 10:03:39;;;;;;;7.77;5.00;;;;;;;;;;2064928;28;20293;-59
2022/02/12 10:04:39;;;;;;;11.33;5.97;;;;;;;;;;2062864;28;20213;-59
2022/02/12 10:05:49;;;;;;;9.97;5.87;;;;;;;;;;2066476;28;20188;-60
2022/02/12 10:06:50;;;;;;;9.47;5.40;;;;;;;;;;2067321;28;20216;-60
2022/02/12 10:07:51;;;;;;;10.20;5.47;;;;;;;;;;2067921;28;20177;-61
2022/02/12 10:09:05;;;;;;;8.93;5.47;;;;;;;;;;2065023;28;20189;-57
2022/02/12 10:10:16;;;;;;;9.80;5.27;;;;;;;;;;2067639;28;20189;-60
2022/02/12 10:11:16;;;;;;;7.43;5.47;;;;;;;;;;2066325;28;20185;-61
2022/02/12 10:12:23;;;;;;;10.37;5.37;;;;;;;;;;2067528;28;20273;-58
2022/02/12 10:13:33;;;;;;;8.73;5.13;;;;;;;;;;2067114;28;20177;-57
2022/02/12 10:14:35;;;;;;;8.47;5.37;;;;;;;;;;2056629;28;20173;-61
2022/02/12 10:15:36;;;;;;;7.00;5.00;;;;;;;;;;2063512;28;20667;-61
2022/02/12 10:16:55;;;;;;;9.60;5.60;;;;;;;;;;2063685;28;20232;-61
2022/02/12 10:17:57;;;;;;;9.10;4.77;;;;;;;;;;2058922;28;20190;-58
2022/02/12 10:18:57;;;;;;;5.97;4.67;;;;;;;;;;2062042;28;20188;-58
2022/02/12 10:19:57;;;;;;;7.80;5.30;;;;;;;;;;2068033;28;20184;-58
2022/02/12 10:20:58;;;;;;;10.20;5.30;;;;;;;;;;2066814;28;20185;-60
2022/02/12 10:22:04;;;;;;;6.53;5.33;;;;;;;;;;2066498;28;20248;-57
2022/02/12 10:23:04;;;;;;;9.80;5.50;;;;;;;;;;2065427;28;20178;-61
2022/02/12 10:24:05;;;;;;;9.60;6.00;;;;;;;;;;2056739;28;20566;-62
2022/02/12 10:25:06;;;;;;;10.70;4.97;;;;;;;;;;2049094;28;20202;-60
2022/02/12 10:26:07;;;;;;;11.30;5.67;;;;;;;;;;2064872;28;20182;-59
2022/02/12 10:27:08;;;;;;;9.63;5.13;;;;;;;;;;2061799;28;20205;-57
2022/02/12 10:28:09;;;;;;;11.00;4.73;;;;;;;;;;2065218;28;20177;-57
2022/02/12 10:29:09;;;;;;;10.63;5.37;;;;;;;;;;2061442;28;20248;-58
2022/02/12 10:30:09;;;;;;;10.30;6.47;;;;;;;;;;2062638;28;20208;-60
2022/02/12 10:31:10;;;;;;;10.67;4.70;;;;;;;;;;2063530;28;20332;-58
2022/02/12 10:32:11;;;;;;;10.70;5.80;;;;;;;;;;2063234;28;20178;-52
2022/02/12 10:33:12;;;;;;;11.20;5.20;;;;;;;;;;2064943;28;20555;-59
2022/02/12 10:34:13;;;;;;;9.93;5.37;;;;;;;;;;2063360;28;20212;-61
2022/02/12 10:35:13;;;;;;;8.63;6.03;;;;;;;;;;2064507;28;20689;-58
2022/02/12 10:36:15;;;;;;;9.40;6.03;;;;;;;;;;2063954;28;20222;-58
2022/02/12 10:37:16;;;;;;;10.17;5.70;;;;;;;;;;2063585;28;20281;-55
2022/02/12 10:38:18;;;;;;;7.57;5.07;;;;;;;;;;2066298;28;20200;-56
2022/02/12 10:39:18;;;;;;;7.80;5.30;;;;;;;;;;2066133;28;20174;-60
2022/02/12 10:40:18;;;;;;;12.67;6.37;;;;;;;;;;2060940;28;20182;-60
2022/02/12 10:41:20;;;;;;;7.97;4.63;;;;;;;;;;2064123;28;20208;-59
2022/02/12 10:42:21;;;;;;;8.57;5.53;;;;;;;;;;2066647;28;20224;-60
2022/02/12 10:43:23;;;;;;;6.37;4.63;;;;;;;;;;2066569;28;20205;-62
2022/02/12 10:44:23;;;;;;;12.60;5.07;;;;;;;;;;2066235;28;20174;-57
2022/02/12 10:45:25;;;;;;;9.03;4.87;;;;;;;;;;2060063;28;20208;-59
2022/02/12 10:46:26;;;;;;;7.53;4.87;;;;;;;;;;2064104;28;20182;-60
2022/02/12 10:47:26;;;;;;;11.53;5.43;;;;;;;;;;2065566;28;20539;-59
2022/02/12 10:48:28;;;;;;;8.80;4.83;;;;;;;;;;2060524;28;20178;-61
2022/02/12 10:49:29;;;;;;;8.80;5.30;;;;;;;;;;2059315;28;20183;-61
2022/02/12 10:50:30;;;;;;;6.20;3.97;;;;;;;;;;2058295;28;20671;-60
2022/02/12 10:51:42;;;;;;;8.23;5.20;;;;;;;;;;2058328;28;20174;-60
2022/02/12 10:52:47;;;;;;;12.90;5.30;;;;;;;;;;2058539;28;20302;-58
2022/02/12 10:53:59;;;;;;;5.47;4.50;;;;;;;;;;2058417;28;20261;-60
2022/02/12 10:54:59;;;;;;;8.17;4.60;;;;;;;;;;2058255;28;20317;-60
2022/02/12 10:56:01;;;;;;;9.93;4.90;;;;;;;;;;2057597;28;20569;-58
2022/02/12 10:57:02;;;;;;;7.30;4.30;;;;;;;;;;2057753;28;20241;-58
2022/02/12 10:58:12;;;;;;;12.60;4.73;;;;;;;;;;2058312;28;20178;-60
2022/02/12 10:59:13;;;;;;;8.97;4.40;;;;;;;;;;2066141;28;20181;-59
2022/02/12 11:00:15;;;;;;;8.43;4.17;;;;;;;;;;2065680;28;20637;-62
2022/02/12 11:01:16;;;;;;;8.43;4.37;;;;;;;;;;2065807;28;20177;-61
2022/02/12 11:02:19;;;;;;;9.87;4.87;;;;;;;;;;2066454;28;20204;-61
2022/02/12 11:03:20;;;;;;;6.80;4.30;;;;;;;;;;2065715;28;20692;-59
2022/02/12 11:04:22;;;;;;;8.50;4.23;;;;;;;;;;2064580;28;20177;-59
2022/02/12 11:05:23;;;;;;;6.97;4.40;;;;;;;;;;2064961;28;20525;-58
2022/02/12 11:06:23;;;;;;;6.30;3.83;;;;;;;;;;2065507;28;20177;-57
2022/02/12 11:07:24;;;;;;;9.50;4.87;;;;;;;;;;2059033;28;20174;-61
2022/02/12 11:08:25;;;;;;;9.47;4.70;;;;;;;;;;2064655;28;20180;-60
2022/02/12 11:09:29;;;;;;;12.00;4.23;;;;;;;;;;2066122;28;20200;-59
2022/02/12 11:10:29;;;;;;;9.93;4.03;;;;;;;;;;2066433;28;20170;-58
2022/02/12 11:11:33;;;;;;;6.73;3.80;;;;;;;;;;2065959;28;20169;-60
2022/02/12 11:12:35;;;;;;;7.70;4.10;;;;;;;;;;2065636;28;20261;-60
2022/02/12 11:13:38;;;;;;;11.10;4.07;;;;;;;;;;2065748;28;20251;-60
2022/02/12 11:14:38;;;;;;;9.03;4.03;;;;;;;;;;2064420;28;20193;-62
2022/02/12 11:15:38;;;;;;;6.80;4.13;;;;;;;;;;2065662;28;20177;-61
2022/02/12 11:16:39;;;;;;;7.05;4.22;;;;;;;;;;2065686;28;20169;-61
2022/02/12 11:17:40;;;;;;;6.15;4.55;;;;;;;;;;2063847;28;20201;-60
2022/02/12 11:18:42;;;;;;;8.10;4.10;;;;;;;;;;2066457;28;20193;-61
2022/02/12 11:19:44;;;;;;;6.32;4.03;;;;;;;;;;2066332;28;20161;-58
2022/02/12 11:20:45;;;;;;;8.17;4.43;;;;;;;;;;2065455;28;20178;-56
2022/02/12 11:21:46;;;;;;;11.90;5.10;;;;;;;;;;2063625;28;20579;-57
2022/02/12 11:22:47;;;;;;;9.80;4.23;;;;;;;;;;2057741;28;20163;-60
2022/02/12 11:24:00;;;;;;;6.07;4.20;;;;;;;;;;2056981;28;20540;-60
2022/02/12 11:25:00;;;;;;;6.57;4.13;;;;;;;;;;2057554;28;20628;-60
2022/02/12 11:26:04;;;;;;;9.23;4.43;;;;;;;;;;2058072;28;20233;-59
2022/02/12 11:27:17;;;;;;;5.27;4.07;;;;;;;;;;2060830;28;20695;-61
2022/02/12 11:28:18;;;;;;;7.57;3.65;;;;;;;;;;2063381;28;20177;-60
2022/02/12 11:29:31;;;;;;;6.53;4.10;;;;;;;;;;2060261;28;20630;-60
2022/02/12 11:30:31;;;;;;;7.83;3.70;;;;;;;;;;2057436;28;20178;-60
2022/02/12 11:31:32;;;;;;;6.30;3.30;;;;;;;;;;2065091;28;20713;-61
2022/02/12 11:32:40;;;;;;;6.97;4.37;;;;;;;;;;2066151;28;20652;-59
2022/02/12 11:34:00;;;;;;;7.65;3.85;;;;;;;;;;2066171;28;20194;-60
2022/02/12 11:35:10;;;;;;;8.73;3.90;;;;;;;;;;2066084;28;20205;-59
2022/02/12 11:36:10;;;;;;;7.40;3.72;;;;;;;;;;2066161;28;20169;-57
2022/02/12 11:37:12;;;;;;;7.43;4.10;;;;;;;;;;2065401;28;20177;-60
2022/02/12 11:38:31;;;;;;;4.88;3.90;;;;;;;;;;2057458;28;20180;-57
2022/02/12 11:39:31;;;;;;;7.68;3.85;;;;;;;;;;2065726;28;20235;-63
2022/02/12 11:40:31;;;;;;;6.05;3.65;;;;;;;;;;2066264;28;20162;-60
2022/02/12 11:41:32;;;;;;;6.50;3.60;;;;;;;;;;2065586;28;20182;-58
2022/02/12 11:42:39;;;;;;;10.00;3.95;;;;;;;;;;2057437;28;20273;-58
2022/02/12 11:43:44;;;;;;;5.32;3.33;;;;;;;;;;2065445;28;20216;-61
2022/02/12 11:44:45;;;;;;;8.75;3.92;;;;;;;;;;2065290;28;20272;-60
2022/02/12 11:45:47;;;;;;;8.80;4.40;;;;;;;;;;2065015;28;20662;-58
2022/02/12 11:46:50;;;;;;;7.50;3.47;;;;;;;;;;2066093;28;20528;-60
2022/02/12 11:48:09;;;;;;;9.07;3.72;;;;;;;;;;2066294;28;20212;-61
2022/02/12 11:49:29;;;;;;;5.78;3.60;;;;;;;;;;2066250;28;20241;-61
2022/02/12 11:50:43;;;;;;;9.25;3.50;;;;;;;;;;2065991;28;20224;-61
2022/02/12 11:51:44;;;;;;;5.63;3.80;;;;;;;;;;2063482;28;20189;-61
2022/02/12 11:52:47;;;;;;;9.93;3.60;;;;;;;;;;2065191;28;20194;-60
2022/02/12 11:53:54;;;;;;;8.23;3.95;;;;;;;;;;2063928;28;20208;-60
2022/02/12 11:54:59;;;;;;;7.35;3.70;;;;;;;;;;2062227;28;20220;-60
2022/02/12 11:56:05;;;;;;;9.90;3.75;;;;;;;;;;2063720;28;20181;-62
2022/02/12 11:57:06;;;;;;;11.43;4.45;;;;;;;;;;2064132;28;20240;-61
2022/02/12 11:58:06;;;;;;;7.82;3.70;;;;;;;;;;2064487;28;20243;-59
2022/02/12 11:59:08;;;;;;;12.52;4.32;;;;;;;;;;2062143;28;20253;-55
2022/02/12 12:00:09;;;;;;;10.63;4.40;;;;;;;;;;2061409;28;20178;-59
2022/02/12 12:01:21;;;;;;;7.60;4.07;;;;;;;;;;2061273;28;20190;-60
2022/02/12 12:02:39;;;;;;;9.32;4.40;;;;;;;;;;2064013;28;20259;-60
2022/02/12 12:03:58;;;;;;;8.30;4.38;;;;;;;;;;2065978;28;20692;-60
2022/02/12 12:05:10;;;;;;;8.98;4.40;;;;;;;;;;2065787;28;20256;-61
2022/02/12 12:06:20;;;;;;;6.65;3.92;;;;;;;;;;2064580;28;20645;-59
2022/02/12 12:07:21;;;;;;;7.78;4.05;;;;;;;;;;2063907;28;20603;-62
2022/02/12 12:08:21;;;;;;;9.40;4.93;;;;;;;;;;2064211;28;20174;-62
2022/02/12 12:09:21;;;;;;;10.15;4.05;;;;;;;;;;2058771;28;20213;-58
2022/02/12 12:10:22;;;;;;;6.63;4.00;;;;;;;;;;2064448;28;20237;-62
2022/02/12 12:11:22;;;;;;;4.77;4.13;;;;;;;;;;2059461;28;20217;-62
2022/02/12 12:12:23;;;;;;;7.03;4.25;;;;;;;;;;2059246;28;20600;-61
2022/02/12 12:13:26;;;;;;;6.35;3.90;;;;;;;;;;2065996;28;20212;-60
2022/02/12 12:14:26;;;;;;;7.93;3.85;;;;;;;;;;2063766;28;20181;-61
2022/02/12 12:15:26;;;;;;;7.33;4.30;;;;;;;;;;2065951;28;20208;-61
2022/02/12 12:16:33;;;;;;;8.90;4.40;;;;;;;;;;2065429;28;20173;-62
2022/02/12 12:17:35;;;;;;;9.13;4.13;;;;;;;;;;2065597;28;20257;-61
2022/02/12 12:18:44;;;;;;;9.20;4.38;;;;;;;;;;2063739;28;20176;-63
2022/02/12 12:19:53;;;;;;;9.60;4.05;;;;;;;;;;2061714;28;20181;-62
2022/02/12 12:20:53;;;;;;;9.60;4.53;;;;;;;;;;2065532;28;20232;-63
2022/02/12 12:21:57;;;;;;;9.35;4.00;;;;;;;;;;2063411;28;20252;-60
2022/02/12 12:23:00;;;;;;;6.97;4.18;;;;;;;;;;2061611;28;20178;-62
2022/02/12 12:24:00;;;;;;;6.20;4.38;;;;;;;;;;2064132;28;20177;-58
2022/02/12 12:25:01;;;;;;;8.63;4.32;;;;;;;;;;2065843;28;20193;-64
2022/02/12 12:26:03;;;;;;;5.63;4.90;;;;;;;;;;2065809;28;20162;-61
2022/02/12 12:27:04;;;;;;;10.05;5.15;;;;;;;;;;2063867;28;20565;-61
2022/02/12 12:28:04;;;;;;;7.18;4.88;;;;;;;;;;2062810;28;20264;-63
2022/02/12 12:30:46;;;;;;;8.02;4.72;;;;;;;;;;2064292;28;20179;-62
2022/02/12 12:31:46;;;;;;;7.28;4.40;;;;;;;;;;2059516;28;20177;-62
2022/02/12 12:32:46;;;;;;;6.30;4.13;;;;;;;;;;2063218;28;20273;-62
2022/02/12 12:33:46;;;;;;;8.75;4.35;;;;;;;;;;2064140;28;20178;-64
2022/02/12 12:35:03;;;;;;;6.28;3.28;;;;;;;;;;2062687;28;20223;-61
2022/02/12 12:36:06;;;;;;;8.07;3.60;;;;;;;;;;2058893;28;20610;-58
2022/02/12 12:37:07;;;;;;;6.07;3.40;;;;;;;;;;2051160;28;20171;-58
2022/02/12 12:38:10;;;;;;;6.28;4.13;;;;;;;;;;2053062;28;20605;-55
2022/02/12 12:39:11;;;;;;;10.30;4.55;;;;;;;;;;2058458;28;20245;-54
2022/02/12 12:40:12;;;;;;;10.43;4.95;;;;;;;;;;2056656;28;20818;-53
2022/02/12 12:41:20;;;;;;;10.32;4.05;;;;;;;;;;2064793;28;20170;-56
2022/02/12 12:42:21;;;;;;;10.77;4.30;;;;;;;;;;2064973;28;20390;-57
2022/02/12 12:43:22;;;;;;;8.20;3.47;;;;;;;;;;2065389;28;20188;-54
2022/02/12 12:44:25;;;;;;;6.03;3.95;;;;;;;;;;2058562;28;20488;-58
2022/02/12 12:45:25;;;;;;;4.55;4.13;;;;;;;;;;2056969;28;20170;-54
2022/02/12 12:46:25;;;;;;;6.55;4.28;;;;;;;;;;2056747;28;20694;-52
2022/02/12 12:47:26;;;;;;;7.15;4.30;;;;;;;;;;2057477;28;20642;-56
2022/02/12 12:48:32;;;;;;;8.07;5.05;;;;;;;;;;2057066;28;20182;-56
2022/02/12 12:49:40;;;;;;;9.40;4.60;;;;;;;;;;2049692;28;20178;-56
2022/02/12 12:50:41;;;;;;;8.95;4.97;;;;;;;;;;2056919;28;20170;-54
2022/02/12 12:51:49;;;;;;;7.80;4.13;;;;;;;;;;2057664;28;20262;-58
2022/02/12 12:52:59;;;;;;;5.78;4.13;;;;;;;;;;2057094;28;20174;-54
2022/02/12 12:54:00;;;;;;;6.32;3.67;;;;;;;;;;2056760;28;20162;-57
2022/02/12 12:55:09;;;;;;;5.93;3.92;;;;;;;;;;2060724;28;20201;-57
2022/02/12 12:56:09;;;;;;;8.27;3.88;;;;;;;;;;2064625;28;20170;-58
2022/02/12 12:57:13;;;;;;;8.20;4.38;;;;;;;;;;2065198;28;20181;-54
2022/02/12 12:58:15;;;;;;;9.98;4.80;;;;;;;;;;2065608;28;20248;-55
2022/02/12 12:59:15;;;;;;;6.70;4.75;;;;;;;;;;2063927;28;20616;-59
2022/02/12 13:00:16;;;;;;;6.03;4.43;;;;;;;;;;2061231;28;20171;-54
2022/02/12 13:01:18;;;;;;;6.80;4.15;;;;;;;;;;2059971;28;20217;-54
2022/02/12 13:02:19;;;;;;;7.43;4.65;;;;;;;;;;2063222;28;20194;-54
2022/02/12 13:03:22;;;;;;;5.75;4.03;;;;;;;;;;2064751;28;20232;-56
2022/02/12 13:04:23;;;;;;;9.52;4.55;;;;;;;;;;2064404;28;20173;-55
2022/02/12 13:05:24;;;;;;;8.00;4.43;;;;;;;;;;2064607;28;20185;-48
2022/02/12 13:06:25;;;;;;;6.47;3.92;;;;;;;;;;2065148;28;20180;-53
2022/02/12 13:07:27;;;;;;;5.78;3.78;;;;;;;;;;2065322;28;20702;-58
2022/02/12 13:08:28;;;;;;;7.47;4.20;;;;;;;;;;2065398;28;20181;-58
2022/02/12 13:09:28;;;;;;;9.48;4.22;;;;;;;;;;2060229;28;20187;-56
2022/02/12 13:10:29;;;;;;;6.10;3.58;;;;;;;;;;2057272;28;20174;-53
2022/02/12 13:11:33;;;;;;;6.50;4.28;;;;;;;;;;2063779;28;20645;-53
2022/02/12 13:12:35;;;;;;;8.85;4.55;;;;;;;;;;2057701;28;20170;-52
2022/02/12 13:13:36;;;;;;;6.70;4.15;;;;;;;;;;2057514;28;20257;-53
2022/02/12 13:14:45;;;;;;;9.20;4.43;;;;;;;;;;2061631;28;20189;-55
2022/02/12 13:15:47;;;;;;;7.63;4.20;;;;;;;;;;2064815;28;20173;-54
2022/02/12 13:16:48;;;;;;;5.95;3.90;;;;;;;;;;2065435;28;20176;-51
2022/02/12 13:17:54;;;;;;;6.50;3.50;;;;;;;;;;2065062;28;20220;-55
2022/02/12 13:18:54;;;;;;;3.97;3.40;;;;;;;;;;2065559;28;20173;-49
2022/02/12 13:20:02;;;;;;;8.45;4.07;;;;;;;;;;2065156;28;20303;-56
2022/02/12 13:21:12;;;;;;;6.72;3.65;;;;;;;;;;2065299;28;20166;-57
2022/02/12 13:22:15;;;;;;;8.90;3.75;;;;;;;;;;2065070;28;20193;-52
2022/02/12 13:23:17;;;;;;;6.35;3.70;;;;;;;;;;2065109;28;20197;-51
2022/02/12 13:24:19;;;;;;;7.30;4.53;;;;;;;;;;2064821;28;20176;-51
2022/02/12 13:25:20;;;;;;;7.78;3.90;;;;;;;;;;2064370;28;20253;-58
2022/02/12 13:26:20;;;;;;;5.05;3.60;;;;;;;;;;2064483;28;20182;-59
2022/02/12 13:27:23;;;;;;;6.13;3.60;;;;;;;;;;2065679;28;20205;-58
2022/02/12 13:28:24;;;;;;;4.72;3.75;;;;;;;;;;2065186;28;20656;-55
2022/02/12 13:29:25;;;;;;;9.03;4.47;;;;;;;;;;2065169;28;20417;-55
2022/02/12 13:30:30;;;;;;;7.07;4.65;;;;;;;;;;2064430;28;20177;-56
2022/02/12 13:31:37;;;;;;;6.80;3.90;;;;;;;;;;2064939;28;20765;-57
2022/02/12 13:32:44;;;;;;;8.93;3.80;;;;;;;;;;2065349;28;20178;-61
2022/02/12 13:33:55;;;;;;;9.30;3.90;;;;;;;;;;2066535;28;20162;-57
2022/02/12 13:34:56;;;;;;;6.35;3.97;;;;;;;;;;2062467;28;20210;-58
2022/02/12 13:35:57;;;;;;;5.63;3.60;;;;;;;;;;2062549;28;20166;-57
2022/02/12 13:36:58;;;;;;;5.95;3.38;;;;;;;;;;2059749;28;20661;-59
2022/02/12 13:37:59;;;;;;;6.38;3.50;;;;;;;;;;2061405;28;20174;-56
2022/02/12 13:39:05;;;;;;;5.55;3.72;;;;;;;;;;2059670;28;20170;-60
2022/02/12 13:40:07;;;;;;;10.02;4.55;;;;;;;;;;2065070;28;20192;-57
2022/02/12 13:41:07;;;;;;;6.95;4.30;;;;;;;;;;2064362;28;20166;-58
2022/02/12 13:42:07;;;;;;;11.55;4.80;;;;;;;;;;2064768;28;20284;-58
2022/02/12 13:43:07;;;;;;;8.30;4.15;;;;;;;;;;2063206;28;20188;-60
2022/02/12 13:44:08;;;;;;;11.00;4.40;;;;;;;;;;2055945;28;20185;-60
2022/02/12 13:45:08;;;;;;;8.15;4.38;;;;;;;;;;2056883;28;20198;-58
2022/02/12 13:46:09;;;;;;;6.38;3.83;;;;;;;;;;2057177;28;20178;-60
2022/02/12 13:47:09;;;;;;;8.15;4.65;;;;;;;;;;2056981;28;20200;-54
2022/02/12 13:48:23;;;;;;;6.68;3.88;;;;;;;;;;2057015;28;20166;-58
2022/02/12 13:49:26;;;;;;;8.05;4.28;;;;;;;;;;2056979;28;20253;-60
2022/02/12 13:50:28;;;;;;;6.95;4.15;;;;;;;;;;2057057;28;20170;-60
2022/02/12 13:51:28;;;;;;;8.85;4.50;;;;;;;;;;2057091;28;20273;-60
2022/02/12 13:52:29;;;;;;;8.23;4.70;;;;;;;;;;2064989;28;20174;-61
2022/02/12 13:53:30;;;;;;;5.00;3.50;;;;;;;;;;2064561;28;20602;-57
2022/02/12 13:54:31;;;;;;;5.97;3.75;;;;;;;;;;2064621;28;20173;-55
2022/02/12 13:55:47;;;;;;;6.28;3.80;;;;;;;;;;2065085;28;20274;-53
2022/02/12 13:56:51;;;;;;;6.63;4.05;;;;;;;;;;2065095;28;20629;-57
2022/02/12 13:57:51;;;;;;;7.30;4.40;;;;;;;;;;2064969;28;20169;-56
2022/02/12 13:58:52;;;;;;;6.30;3.63;;;;;;;;;;2064876;28;20593;-57
2022/02/12 13:59:52;;;;;;;7.53;4.13;;;;;;;;;;2064827;28;20174;-56
2022/02/12 14:00:54;;;;;;;8.40;4.07;;;;;;;;;;2064973;28;20579;-57
2022/02/12 14:01:55;;;;;;;9.15;3.95;;;;;;;;;;2064887;28;20201;-57
2022/02/12 14:02:55;;;;;;;7.25;3.85;;;;;;;;;;2064997;28;20181;-59
2022/02/12 14:03:55;;;;;;;8.48;4.18;;;;;;;;;;2064613;28;20244;-59
2022/02/12 14:04:56;;;;;;;7.28;4.10;;;;;;;;;;2064716;28;20206;-58
2022/02/12 14:05:56;;;;;;;8.80;4.38;;;;;;;;;;2064667;28;20173;-60
2022/02/12 14:06:56;;;;;;;5.55;4.30;;;;;;;;;;2065075;28;20182;-57
2022/02/12 14:07:57;;;;;;;8.10;4.22;;;;;;;;;;2064576;28;20174;-59
2022/02/12 14:09:00;;;;;;;7.78;3.88;;;;;;;;;;2064539;28;20165;-59
2022/02/12 14:10:00;;;;;;;9.77;4.28;;;;;;;;;;2064648;28;20716;-59
2022/02/12 14:11:01;;;;;;;9.95;4.97;;;;;;;;;;2064861;28;20240;-56
2022/02/12 14:12:01;;;;;;;6.93;4.07;;;;;;;;;;2064780;28;20261;-58
2022/02/12 14:13:02;;;;;;;8.90;3.80;;;;;;;;;;2064915;28;20165;-54
2022/02/12 14:14:03;;;;;;;8.98;4.03;;;;;;;;;;2064288;28;20178;-57
2022/02/12 14:15:04;;;;;;;6.70;4.05;;;;;;;;;;2065045;28;20193;-59
2022/02/12 14:16:04;;;;;;;5.95;3.88;;;;;;;;;;2064965;28;20165;-59
2022/02/12 14:17:05;;;;;;;7.95;4.13;;;;;;;;;;2065108;28;20267;-55
2022/02/12 14:18:05;;;;;;;7.00;3.92;;;;;;;;;;2065349;28;20181;-57
2022/02/12 14:19:05;;;;;;;9.63;5.38;;;;;;;;;;2065176;28;20736;-61
2022/02/12 14:20:06;;;;;;;9.82;6.50;;;;;;;;;;2064577;28;20252;-59
2022/02/12 14:21:07;;;;;;;8.75;5.43;;;;;;;;;;2065397;28;20317;-60
2022/02/12 14:22:08;;;;;;;11.32;6.95;;;;;;;;;;2065732;28;20213;-59
2022/02/12 14:23:08;;;;;;;7.10;3.90;;;;;;;;;;2065425;28;20166;-59
2022/02/12 14:24:09;;;;;;;7.55;4.05;;;;;;;;;;2064154;28;20173;-59
2022/02/12 14:25:09;;;;;;;6.20;3.67;;;;;;;;;;2056392;28;20265;-61
2022/02/12 14:26:09;;;;;;;8.30;4.30;;;;;;;;;;2064852;28;20184;-58
2022/02/12 14:27:11;;;;;;;6.72;4.50;;;;;;;;;;2065007;28;20180;-57
2022/02/12 14:28:12;;;;;;;8.70;3.80;;;;;;;;;;2065039;28;20197;-54
2022/02/12 14:29:14;;;;;;;7.65;5.38;;;;;;;;;;2064240;28;20173;-55
2022/02/12 14:30:14;;;;;;;9.15;5.63;;;;;;;;;;2064251;28;20213;-59
2022/02/12 14:31:15;;;;;;;6.40;3.65;;;;;;;;;;2064856;28;20611;-58
2022/02/12 14:32:15;;;;;;;9.43;3.60;;;;;;;;;;2065072;28;20178;-54
2022/02/12 14:33:16;;;;;;;9.27;4.72;;;;;;;;;;2064710;28;20181;-59
2022/02/12 14:34:20;;;;;;;7.07;3.55;;;;;;;;;;2064256;28;20661;-58
2022/02/12 14:35:20;;;;;;;7.88;3.58;;;;;;;;;;2064941;28;20170;-57
2022/02/12 14:36:21;;;;;;;7.85;3.53;;;;;;;;;;2065168;28;20587;-61
2022/02/12 14:37:21;;;;;;;5.40;3.60;;;;;;;;;;2065390;28;20583;-58
2022/02/12 14:38:21;;;;;;;7.38;3.33;;;;;;;;;;2065027;28;20228;-58
2022/02/12 14:39:22;;;;;;;6.97;3.60;;;;;;;;;;2064737;28;20173;-54
2022/02/12 14:40:23;;;;;;;5.82;3.80;;;;;;;;;;2065003;28;20182;-61
2022/02/12 14:41:24;;;;;;;6.45;3.90;;;;;;;;;;2064739;28;20178;-59
2022/02/12 14:42:24;;;;;;;7.07;4.32;;;;;;;;;;2064952;28;20201;-58
2022/02/12 14:43:24;;;;;;;8.43;3.67;;;;;;;;;;2064914;28;20587;-57
2022/02/12 14:44:24;;;;;;;8.10;3.83;;;;;;;;;;2064457;28;20169;-58
2022/02/12 14:45:25;;;;;;;7.72;4.13;;;;;;;;;;2064835;28;20672;-57
2022/02/12 14:46:25;;;;;;;5.95;4.03;;;;;;;;;;2064803;28;20650;-58
2022/02/12 14:47:25;;;;;;;9.95;4.40;;;;;;;;;;2064935;28;20289;-57
2022/02/12 14:48:26;;;;;;;8.18;4.65;;;;;;;;;;2064700;28;20166;-60
2022/02/12 14:49:26;;;;;;;6.20;4.63;;;;;;;;;;2064908;28;20182;-59
2022/02/12 14:50:26;;;;;;;7.20;4.18;;;;;;;;;;2065050;28;20178;-59
2022/02/12 14:51:27;;;;;;;5.63;4.30;;;;;;;;;;2064693;28;20216;-56
2022/02/12 14:52:28;;;;;;;8.20;4.88;;;;;;;;;;2057656;28;20661;-57
2022/02/12 14:53:28;;;;;;;6.47;3.60;;;;;;;;;;2056861;28;20166;-59
2022/02/12 14:54:28;;;;;;;8.68;5.93;;;;;;;;;;2056310;28;20177;-60
2022/02/12 14:55:29;;;;;;;21.33;16.50;;;;;;;;;;2056915;28;20206;-59
2022/02/12 14:56:29;;;;;;;7.53;3.90;;;;;;;;;;2056672;28;20174;-57
2022/02/12 14:57:30;;;;;;;8.77;6.15;;;;;;;;;;2056238;28;20197;-61
2022/02/12 14:58:30;;;;;;;65.25;46.55;;;;;;;;;;2056088;28;20170;-59
2022/02/12 14:59:30;;;;;;;116.53;85.55;;;;;;;;;;2056821;28;20643;-60
2022/02/12 15:00:31;;;;;;;36.20;26.35;;;;;;;;;;2056971;28;20198;-60
2022/02/12 15:01:31;;;;;;;51.80;35.50;;;;;;;;;;2056797;28;20179;-60
2022/02/12 15:02:31;;;;;;;18.10;12.00;;;;;;;;;;2061115;28;20169;-60
2022/02/12 15:03:31;;;;;;;7.32;4.35;;;;;;;;;;2064403;28;20591;-60
2022/02/12 15:04:32;;;;;;;8.00;4.65;;;;;;;;;;2064340;28;20194;-61
2022/02/12 15:05:32;;;;;;;8.40;5.00;;;;;;;;;;2064972;28;20572;-59
2022/02/12 15:06:32;;;;;;;4.93;4.20;;;;;;;;;;2064962;28;20653;-61
2022/02/12 15:07:41;;;;;;;23.85;17.30;;;;;;;;;;2064462;28;20190;-59
2022/02/12 15:08:42;;;;;;;7.43;4.78;;;;;;;;;;2064342;28;20169;-59
2022/02/12 15:09:42;;;;;;;21.05;13.13;;;;;;;;;;2064620;28;20177;-60
2022/02/12 15:10:42;;;;;;;13.65;8.63;;;;;;;;;;2063800;28;20206;-61